sensor_id;sensor_type;location;lat;lon;timestamp;pressure;altitude;pressure_sealevel;temperature;humidity
55010;BME280;40903;51.638;7.528;2024-03-02T00:02:24;99612.94;;;7.04;100.00
55010;BME280;40903;51.638;7.528;2024-03-02T00:04:50;99609.19;;;7.00;100.00
55010;BME280;40903;51.638;7.528;2024-03-02T00:07:17;99605.16;;;6.98;100.00
55010;BME280;40903;51.638;7.528;2024-03-02T00:09:42;99605.75;;;6.95;100.00
55010;BME280;40903;51.638;7.528;2024-03-02T00:12:08;99604.16;;;6.94;100.00
55010;BME280;40903;51.638;7.528;2024-03-02T00:14:39;99599.53;;;6.94;100.00
55010;BME280;40903;51.638;7.528;2024-03-02T00:17:11;99591.63;;;6.98;100.00
55010;BME280;40903;51.638;7.528;2024-03-02T00:19:43;99584.72;;;7.05;100.00
55010;BME280;40903;51.638;7.528;2024-03-02T00:22:09;99583.78;;;7.15;100.00
55010;BME280;40903;51.638;7.528;2024-03-02T00:24:34;99585.31;;;7.21;100.00
55010;BME280;40903;51.638;7.528;2024-03-02T00:27:01;99594.94;;;7.27;100.00
55010;BME280;40903;51.638;7.528;2024-03-02T00:29:29;99593.78;;;7.33;100.00
55010;BME280;40903;51.638;7.528;2024-03-02T00:31:55;99588.91;;;7.48;100.00
55010;BME280;40903;51.638;7.528;2024-03-02T00:34:21;99591.84;;;7.52;100.00
55010;BME280;40903;51.638;7.528;2024-03-02T00:36:47;99592.06;;;7.55;100.00
55010;BME280;40903;51.638;7.528;2024-03-02T00:39:16;99592.06;;;7.55;100.00
55010;BME280;40903;51.638;7.528;2024-03-02T00:41:43;99591.16;;;7.60;100.00
55010;BME280;40903;51.638;7.528;2024-03-02T00:44:15;99587.34;;;7.61;100.00
55010;BME280;40903;51.638;7.528;2024-03-02T00:46:42;99587.66;;;7.72;100.00
55010;BME280;40903;51.638;7.528;2024-03-02T00:49:23;99582.31;;;7.68;100.00
55010;BME280;40903;51.638;7.528;2024-03-02T00:51:50;99582.09;;;7.64;100.00
55010;BME280;40903;51.638;7.528;2024-03-02T00:54:20;99576.41;;;7.66;100.00
55010;BME280;40903;51.638;7.528;2024-03-02T00:56:47;99569.75;;;7.71;100.00
55010;BME280;40903;51.638;7.528;2024-03-02T00:59:12;99570.88;;;7.70;100.00
55010;BME280;40903;51.638;7.528;2024-03-02T01:01:38;99572.28;;;7.68;100.00
55010;BME280;40903;51.638;7.528;2024-03-02T01:04:03;99573.41;;;7.67;100.00
55010;BME280;40903;51.638;7.528;2024-03-02T01:06:30;99569.56;;;7.68;100.00
55010;BME280;40903;51.638;7.528;2024-03-02T01:08:56;99570.97;;;7.66;100.00
55010;BME280;40903;51.638;7.528;2024-03-02T01:11:21;99564.25;;;7.76;100.00
55010;BME280;40903;51.638;7.528;2024-03-02T01:13:47;99564.66;;;7.83;100.00
55010;BME280;40903;51.638;7.528;2024-03-02T01:16:13;99554.91;;;7.82;100.00
55010;BME280;40903;51.638;7.528;2024-03-02T01:18:38;99547.09;;;7.94;100.00
55010;BME280;40903;51.638;7.528;2024-03-02T01:21:04;99544.84;;;8.10;100.00
55010;BME280;40903;51.638;7.528;2024-03-02T01:23:29;99539.41;;;8.10;100.00
55010;BME280;40903;51.638;7.528;2024-03-02T01:25:55;99539.34;;;8.15;100.00
55010;BME280;40903;51.638;7.528;2024-03-02T01:28:21;99534.19;;;8.13;100.00
55010;BME280;40903;51.638;7.528;2024-03-02T01:30:47;99538.03;;;8.12;99.96
55010;BME280;40903;51.638;7.528;2024-03-02T01:33:12;99531.28;;;8.10;100.00
55010;BME280;40903;51.638;7.528;2024-03-02T01:35:38;99526.88;;;8.27;98.38
55010;BME280;40903;51.638;7.528;2024-03-02T01:38:04;99534.41;;;8.30;98.20
55010;BME280;40903;51.638;7.528;2024-03-02T01:40:34;99519.44;;;8.33;97.79
55010;BME280;40903;51.638;7.528;2024-03-02T01:43:00;99523.25;;;8.32;98.14
55010;BME280;40903;51.638;7.528;2024-03-02T01:45:26;99534.13;;;8.32;97.82
55010;BME280;40903;51.638;7.528;2024-03-02T01:47:51;99537.22;;;8.39;97.04
55010;BME280;40903;51.638;7.528;2024-03-02T01:50:28;99541.44;;;8.45;95.95
55010;BME280;40903;51.638;7.528;2024-03-02T01:52:57;99535.69;;;8.46;96.20
55010;BME280;40903;51.638;7.528;2024-03-02T01:55:23;99537.13;;;8.44;96.44
55010;BME280;40903;51.638;7.528;2024-03-02T01:57:49;99531.66;;;8.57;94.29
55010;BME280;40903;51.638;7.528;2024-03-02T02:00:20;99529.56;;;8.54;94.93
55010;BME280;40903;51.638;7.528;2024-03-02T02:02:46;99538.31;;;8.51;95.21
55010;BME280;40903;51.638;7.528;2024-03-02T02:05:13;99525.72;;;8.55;94.27
55010;BME280;40903;51.638;7.528;2024-03-02T02:07:39;99529.56;;;8.54;94.15
55010;BME280;40903;51.638;7.528;2024-03-02T02:10:05;99510.13;;;8.47;95.34
55010;BME280;40903;51.638;7.528;2024-03-02T02:12:31;99526.44;;;8.47;94.33
55010;BME280;40903;51.638;7.528;2024-03-02T02:14:57;99523.72;;;8.47;94.20
55010;BME280;40903;51.638;7.528;2024-03-02T02:17:23;99530.75;;;8.48;94.06
55010;BME280;40903;51.638;7.528;2024-03-02T02:19:48;99526.75;;;8.46;94.02
55010;BME280;40903;51.638;7.528;2024-03-02T02:22:14;99513.97;;;8.46;94.25
55010;BME280;40903;51.638;7.528;2024-03-02T02:24:40;99512.34;;;8.45;93.73
55010;BME280;40903;51.638;7.528;2024-03-02T02:27:07;99511.84;;;8.43;94.23
55010;BME280;40903;51.638;7.528;2024-03-02T02:29:33;99514.22;;;8.36;94.65
55010;BME280;40903;51.638;7.528;2024-03-02T02:31:59;99517.50;;;8.33;94.71
55010;BME280;40903;51.638;7.528;2024-03-02T02:34:24;99517.81;;;8.32;95.29
55010;BME280;40903;51.638;7.528;2024-03-02T02:36:50;99512.19;;;8.28;95.18
55010;BME280;40903;51.638;7.528;2024-03-02T02:39:16;99510.47;;;8.32;94.67
55010;BME280;40903;51.638;7.528;2024-03-02T02:41:44;99513.81;;;8.29;95.25
55010;BME280;40903;51.638;7.528;2024-03-02T02:44:09;99517.63;;;8.28;94.99
55010;BME280;40903;51.638;7.528;2024-03-02T02:46:38;99515.72;;;8.29;94.81
55010;BME280;40903;51.638;7.528;2024-03-02T02:49:04;99512.19;;;8.28;95.18
55010;BME280;40903;51.638;7.528;2024-03-02T02:51:30;99506.25;;;8.26;95.04
55010;BME280;40903;51.638;7.528;2024-03-02T02:53:56;99501.75;;;8.22;96.05
55010;BME280;40903;51.638;7.528;2024-03-02T02:56:21;99498.25;;;8.21;95.67
55010;BME280;40903;51.638;7.528;2024-03-02T02:58:47;99489.66;;;8.14;96.04
55010;BME280;40903;51.638;7.528;2024-03-02T03:01:13;99490.28;;;8.11;96.12
55010;BME280;40903;51.638;7.528;2024-03-02T03:03:38;99502.94;;;8.16;95.99
55010;BME280;40903;51.638;7.528;2024-03-02T03:06:04;99495.91;;;8.15;96.18
55010;BME280;40903;51.638;7.528;2024-03-02T03:08:29;99493.97;;;8.15;96.86
55010;BME280;40903;51.638;7.528;2024-03-02T03:10:55;99502.56;;;8.22;96.12
55010;BME280;40903;51.638;7.528;2024-03-02T03:13:21;99503.84;;;8.38;95.07
55010;BME280;40903;51.638;7.528;2024-03-02T03:15:46;99499.47;;;8.51;93.90
55010;BME280;40903;51.638;7.528;2024-03-02T03:18:12;99507.50;;;8.56;93.67
55010;BME280;40903;51.638;7.528;2024-03-02T03:20:37;99506.91;;;8.59;93.69
55010;BME280;40903;51.638;7.528;2024-03-02T03:23:03;99517.78;;;8.59;93.53
55010;BME280;40903;51.638;7.528;2024-03-02T03:25:32;99519.19;;;8.56;93.62
55010;BME280;40903;51.638;7.528;2024-03-02T03:31:19;99516.47;;;8.56;92.74
55010;BME280;40903;51.638;7.528;2024-03-02T03:33:45;99513.25;;;8.54;92.93
55010;BME280;40903;51.638;7.528;2024-03-02T03:36:10;99511.75;;;8.48;93.17
55010;BME280;40903;51.638;7.528;2024-03-02T03:38:36;99499.69;;;8.41;94.09
55010;BME280;40903;51.638;7.528;2024-03-02T03:41:01;99498.19;;;8.35;94.68
55010;BME280;40903;51.638;7.528;2024-03-02T03:43:27;99506.75;;;8.28;95.01
55010;BME280;40903;51.638;7.528;2024-03-02T03:45:52;99506.38;;;8.21;95.29
55010;BME280;40903;51.638;7.528;2024-03-02T03:48:18;99504.53;;;8.17;95.98
55010;BME280;40903;51.638;7.528;2024-03-02T03:50:44;99511.97;;;8.11;95.98
55010;BME280;40903;51.638;7.528;2024-03-02T03:53:10;99507.38;;;8.12;96.18
55010;BME280;40903;51.638;7.528;2024-03-02T03:55:35;99507.66;;;8.10;96.25
55010;BME280;40903;51.638;7.528;2024-03-02T03:58:01;99511.50;;;8.09;96.22
55010;BME280;40903;51.638;7.528;2024-03-02T04:00:26;99514.81;;;8.06;96.46
55010;BME280;40903;51.638;7.528;2024-03-02T04:02:51;99512.19;;;8.01;97.06
55010;BME280;40903;51.638;7.528;2024-03-02T04:05:17;99514.41;;;7.99;97.19
55010;BME280;40903;51.638;7.528;2024-03-02T04:07:42;99512.59;;;7.95;97.49
55010;BME280;40903;51.638;7.528;2024-03-02T04:10:09;99523.25;;;7.91;98.77
55010;BME280;40903;51.638;7.528;2024-03-02T04:12:36;99527.88;;;7.91;98.90
55010;BME280;40903;51.638;7.528;2024-03-02T04:15:03;99517.50;;;7.93;98.28
55010;BME280;40903;51.638;7.528;2024-03-02T04:17:30;99525.56;;;7.98;98.38
55010;BME280;40903;51.638;7.528;2024-03-02T04:19:56;99516.81;;;8.01;97.73
55010;BME280;40903;51.638;7.528;2024-03-02T04:22:21;99521.16;;;8.02;97.76
55010;BME280;40903;51.638;7.528;2024-03-02T04:24:47;99527.06;;;8.04;97.55
55010;BME280;40903;51.638;7.528;2024-03-02T04:27:12;99521.03;;;8.07;97.60
55010;BME280;40903;51.638;7.528;2024-03-02T04:29:38;99519.44;;;8.06;97.31
55010;BME280;40903;51.638;7.528;2024-03-02T04:32:03;99511.00;;;8.07;97.18
55010;BME280;40903;51.638;7.528;2024-03-02T04:34:29;99512.19;;;8.01;97.35
55010;BME280;40903;51.638;7.528;2024-03-02T04:36:54;99523.66;;;7.98;97.42
55010;BME280;40903;51.638;7.528;2024-03-02T04:39:20;99529.19;;;7.93;98.15
55010;BME280;40903;51.638;7.528;2024-03-02T04:41:45;99527.88;;;7.91;97.87
55010;BME280;40903;51.638;7.528;2024-03-02T04:44:10;99531.69;;;7.90;97.91
55010;BME280;40903;51.638;7.528;2024-03-02T04:46:36;99528.19;;;7.89;98.22
55010;BME280;40903;51.638;7.528;2024-03-02T04:49:02;99533.09;;;7.87;98.33
55010;BME280;40903;51.638;7.528;2024-03-02T04:51:27;99535.31;;;7.85;98.42
55010;BME280;40903;51.638;7.528;2024-03-02T04:53:53;99537.72;;;7.87;98.30
55010;BME280;40903;51.638;7.528;2024-03-02T04:56:18;99529.28;;;7.88;98.21
55010;BME280;40903;51.638;7.528;2024-03-02T04:59:08;99534.84;;;7.97;97.87
55010;BME280;40903;51.638;7.528;2024-03-02T05:01:34;99535.13;;;7.95;98.06
55010;BME280;40903;51.638;7.528;2024-03-02T05:03:59;99536.34;;;7.89;98.73
55010;BME280;40903;51.638;7.528;2024-03-02T05:06:25;99538.53;;;7.87;98.51
55010;BME280;40903;51.638;7.528;2024-03-02T05:08:50;99536.13;;;7.86;98.35
55010;BME280;40903;51.638;7.528;2024-03-02T05:11:16;99535.63;;;7.84;98.54
55010;BME280;40903;51.638;7.528;2024-03-02T05:14:00;99546.88;;;7.77;99.17
55010;BME280;40903;51.638;7.528;2024-03-02T05:16:25;99549.28;;;7.79;98.98
55010;BME280;40903;51.638;7.528;2024-03-02T05:18:51;99557.22;;;7.75;99.34
55010;BME280;40903;51.638;7.528;2024-03-02T05:21:16;99555.09;;;7.72;99.46
55010;BME280;40903;51.638;7.528;2024-03-02T05:23:42;99551.38;;;7.68;99.44
55010;BME280;40903;51.638;7.528;2024-03-02T05:26:07;99565.16;;;7.72;99.62
55010;BME280;40903;51.638;7.528;2024-03-02T05:28:33;99566.03;;;7.68;100.00
55010;BME280;40903;51.638;7.528;2024-03-02T05:30:58;99570.47;;;7.64;100.00
55010;BME280;40903;51.638;7.528;2024-03-02T05:33:24;99571.06;;;7.61;100.00
55010;BME280;40903;51.638;7.528;2024-03-02T05:35:49;99560.78;;;7.58;100.00
55010;BME280;40903;51.638;7.528;2024-03-02T05:38:18;99562.72;;;7.57;100.00
55010;BME280;40903;51.638;7.528;2024-03-02T05:40:44;99564.09;;;7.55;100.00
55010;BME280;40903;51.638;7.528;2024-03-02T05:43:09;99569.53;;;7.55;100.00
55010;BME280;40903;51.638;7.528;2024-03-02T05:45:35;99562.00;;;7.52;100.00
55010;BME280;40903;51.638;7.528;2024-03-02T05:48:00;99557.19;;;7.49;100.00
55010;BME280;40903;51.638;7.528;2024-03-02T05:50:26;99552.63;;;7.44;100.00
55010;BME280;40903;51.638;7.528;2024-03-02T05:52:52;99561.97;;;7.38;100.00
55010;BME280;40903;51.638;7.528;2024-03-02T05:55:17;99574.22;;;7.36;100.00
55010;BME280;40903;51.638;7.528;2024-03-02T05:57:42;99568.88;;;7.31;100.00
55010;BME280;40903;51.638;7.528;2024-03-02T06:00:08;99573.47;;;7.30;100.00
55010;BME280;40903;51.638;7.528;2024-03-02T06:02:34;99576.19;;;7.30;100.00
55010;BME280;40903;51.638;7.528;2024-03-02T06:05:00;99584.66;;;7.29;100.00
55010;BME280;40903;51.638;7.528;2024-03-02T06:07:26;99581.41;;;7.27;100.00
55010;BME280;40903;51.638;7.528;2024-03-02T06:09:51;99589.53;;;7.27;100.00
55010;BME280;40903;51.638;7.528;2024-03-02T06:12:18;99581.41;;;7.27;100.00
55010;BME280;40903;51.638;7.528;2024-03-02T06:14:44;99591.13;;;7.28;100.00
55010;BME280;40903;51.638;7.528;2024-03-02T06:17:09;99583.53;;;7.30;100.00
55010;BME280;40903;51.638;7.528;2024-03-02T06:19:34;99586.81;;;7.27;100.00
55010;BME280;40903;51.638;7.528;2024-03-02T06:22:00;99588.25;;;7.24;100.00
55010;BME280;40903;51.638;7.528;2024-03-02T06:24:26;99572.75;;;7.25;100.00
55010;BME280;40903;51.638;7.528;2024-03-02T06:26:51;99575.47;;;7.25;100.00
55010;BME280;40903;51.638;7.528;2024-03-02T06:29:17;99570.38;;;7.23;100.00
55010;BME280;40903;51.638;7.528;2024-03-02T06:31:43;99571.75;;;7.21;100.00
55010;BME280;40903;51.638;7.528;2024-03-02T06:34:08;99578.28;;;7.20;100.00
55010;BME280;40903;51.638;7.528;2024-03-02T06:36:34;99584.47;;;7.20;100.00
55010;BME280;40903;51.638;7.528;2024-03-02T06:38:59;99584.19;;;7.22;100.00
55010;BME280;40903;51.638;7.528;2024-03-02T06:41:25;99589.13;;;7.20;100.00
55010;BME280;40903;51.638;7.528;2024-03-02T06:43:52;99598.34;;;7.19;100.00
55010;BME280;40903;51.638;7.528;2024-03-02T06:46:25;99594.31;;;7.16;100.00
55010;BME280;40903;51.638;7.528;2024-03-02T06:48:50;99599.13;;;7.19;100.00
55010;BME280;40903;51.638;7.528;2024-03-02T06:51:16;99598.84;;;7.21;100.00
55010;BME280;40903;51.638;7.528;2024-03-02T06:53:41;99603.78;;;7.19;100.00
55010;BME280;40903;51.638;7.528;2024-03-02T06:56:07;99599.47;;;7.18;100.00
55010;BME280;40903;51.638;7.528;2024-03-02T06:58:34;99604.88;;;7.18;100.00
55010;BME280;40903;51.638;7.528;2024-03-02T07:00:59;99608.38;;;7.18;100.00
55010;BME280;40903;51.638;7.528;2024-03-02T07:03:27;99611.91;;;7.19;100.00
55010;BME280;40903;51.638;7.528;2024-03-02T07:05:53;99613.50;;;7.20;100.00
55010;BME280;40903;51.638;7.528;2024-03-02T07:08:19;99620.81;;;7.19;100.00
55010;BME280;40903;51.638;7.528;2024-03-02T07:10:44;99618.44;;;7.18;100.00
55010;BME280;40903;51.638;7.528;2024-03-02T07:13:10;99621.66;;;7.20;100.00
55010;BME280;40903;51.638;7.528;2024-03-02T07:15:35;99626.78;;;7.21;100.00
55010;BME280;40903;51.638;7.528;2024-03-02T07:18:19;99626.78;;;7.21;100.00
55010;BME280;40903;51.638;7.528;2024-03-02T07:20:44;99628.69;;;7.21;100.00
55010;BME280;40903;51.638;7.528;2024-03-02T07:23:10;99620.53;;;7.21;100.00
55010;BME280;40903;51.638;7.528;2024-03-02T07:25:35;99622.75;;;7.19;100.00
55010;BME280;40903;51.638;7.528;2024-03-02T07:28:01;99625.75;;;7.17;100.00
55010;BME280;40903;51.638;7.528;2024-03-02T07:30:26;99626.06;;;7.16;100.00
55010;BME280;40903;51.638;7.528;2024-03-02T07:32:52;99633.38;;;7.15;100.00
55010;BME280;40903;51.638;7.528;2024-03-02T07:35:17;99639.00;;;7.19;100.00
55010;BME280;40903;51.638;7.528;2024-03-02T07:37:43;99644.84;;;7.26;100.00
55010;BME280;40903;51.638;7.528;2024-03-02T07:40:09;99647.69;;;7.34;100.00
55010;BME280;40903;51.638;7.528;2024-03-02T07:42:40;99649.97;;;7.46;100.00
55010;BME280;40903;51.638;7.528;2024-03-02T07:45:06;99658.75;;;7.56;100.00
55010;BME280;40903;51.638;7.528;2024-03-02T07:47:35;99655.56;;;7.68;100.00
55010;BME280;40903;51.638;7.528;2024-03-02T07:50:01;99655.09;;;7.79;100.00
55010;BME280;40903;51.638;7.528;2024-03-02T07:52:27;99651.59;;;7.92;100.00
55010;BME280;40903;51.638;7.528;2024-03-02T07:54:52;99658.38;;;8.08;100.00
55010;BME280;40903;51.638;7.528;2024-03-02T07:57:17;99660.56;;;8.24;100.00
55010;BME280;40903;51.638;7.528;2024-03-02T07:59:43;99655.63;;;8.40;100.00
55010;BME280;40903;51.638;7.528;2024-03-02T08:02:08;99643.66;;;8.54;100.00
55010;BME280;40903;51.638;7.528;2024-03-02T08:04:34;99649.06;;;8.68;100.00
55010;BME280;40903;51.638;7.528;2024-03-02T08:07:01;99650.34;;;8.84;100.00
55010;BME280;40903;51.638;7.528;2024-03-02T08:09:28;99660.41;;;8.97;100.00
55010;BME280;40903;51.638;7.528;2024-03-02T08:11:53;99654.13;;;9.10;100.00
55010;BME280;40903;51.638;7.528;2024-03-02T08:14:19;99650.28;;;9.24;99.84
55010;BME280;40903;51.638;7.528;2024-03-02T08:16:45;99664.81;;;9.42;95.09
55010;BME280;40903;51.638;7.528;2024-03-02T08:19:11;99668.41;;;9.51;96.29
55010;BME280;40903;51.638;7.528;2024-03-02T08:21:37;99660.50;;;9.63;95.48
55010;BME280;40903;51.638;7.528;2024-03-02T08:24:03;99669.53;;;9.71;95.04
55010;BME280;40903;51.638;7.528;2024-03-02T08:26:28;99665.25;;;9.79;93.93
55010;BME280;40903;51.638;7.528;2024-03-02T08:28:57;99673.78;;;9.86;93.89
55010;BME280;40903;51.638;7.528;2024-03-02T08:31:22;99669.69;;;9.97;92.79
55010;BME280;40903;51.638;7.528;2024-03-02T08:33:49;99669.94;;;10.09;91.69
55010;BME280;40903;51.638;7.528;2024-03-02T08:36:15;99667.59;;;10.16;90.04
55010;BME280;40903;51.638;7.528;2024-03-02T08:38:41;99668.13;;;10.26;92.40
55010;BME280;40903;51.638;7.528;2024-03-02T08:41:07;99667.38;;;10.43;90.77
55010;BME280;40903;51.638;7.528;2024-03-02T08:43:33;99669.84;;;10.53;87.58
55010;BME280;40903;51.638;7.528;2024-03-02T08:45:58;99673.53;;;10.57;87.85
55010;BME280;40903;51.638;7.528;2024-03-02T08:48:24;99681.91;;;10.69;88.88
55010;BME280;40903;51.638;7.528;2024-03-02T08:50:49;99685.00;;;10.76;88.27
55010;BME280;40903;51.638;7.528;2024-03-02T08:53:15;99688.88;;;10.83;86.99
55010;BME280;40903;51.638;7.528;2024-03-02T08:55:48;99692.75;;;10.91;86.36
55010;BME280;40903;51.638;7.528;2024-03-02T08:58:14;99700.31;;;11.02;85.80
55010;BME280;40903;51.638;7.528;2024-03-02T09:00:40;99696.00;;;11.18;88.59
55010;BME280;40903;51.638;7.528;2024-03-02T09:03:06;99693.13;;;11.32;86.18
55010;BME280;40903;51.638;7.528;2024-03-02T09:05:31;99694.09;;;11.44;83.88
55010;BME280;40903;51.638;7.528;2024-03-02T09:07:57;99694.59;;;11.55;82.81
55010;BME280;40903;51.638;7.528;2024-03-02T09:10:22;99698.31;;;11.67;84.07
55010;BME280;40903;51.638;7.528;2024-03-02T09:12:48;99691.22;;;11.83;84.26
55010;BME280;40903;51.638;7.528;2024-03-02T09:15:13;99691.69;;;11.93;81.00
55010;BME280;40903;51.638;7.528;2024-03-02T09:17:39;99686.84;;;12.07;82.94
55010;BME280;40903;51.638;7.528;2024-03-02T09:20:05;99688.91;;;12.19;82.81
55010;BME280;40903;51.638;7.528;2024-03-02T09:22:31;99695.97;;;12.28;80.92
55010;BME280;40903;51.638;7.528;2024-03-02T09:24:57;99697.88;;;12.28;78.17
55010;BME280;40903;51.638;7.528;2024-03-02T09:27:23;99688.06;;;12.35;81.38
55010;BME280;40903;51.638;7.528;2024-03-02T09:29:49;99705.97;;;12.24;77.79
55010;BME280;40903;51.638;7.528;2024-03-02T09:32:14;99702.22;;;12.29;79.48
55010;BME280;40903;51.638;7.528;2024-03-02T09:34:41;99696.13;;;12.32;77.64
55010;BME280;40903;51.638;7.528;2024-03-02T09:37:06;99696.13;;;12.32;76.93
55010;BME280;40903;51.638;7.528;2024-03-02T09:39:32;99687.94;;;12.32;77.54
55010;BME280;40903;51.638;7.528;2024-03-02T09:41:58;99681.91;;;12.47;78.67
55010;BME280;40903;51.638;7.528;2024-03-02T09:44:25;99686.06;;;12.53;78.40
55010;BME280;40903;51.638;7.528;2024-03-02T09:46:51;99678.66;;;12.53;75.30
55010;BME280;40903;51.638;7.528;2024-03-02T09:49:17;99681.50;;;12.65;76.10
55010;BME280;40903;51.638;7.528;2024-03-02T09:51:49;99683.69;;;12.80;76.04
55010;BME280;40903;51.638;7.528;2024-03-02T09:54:17;99673.81;;;12.96;76.67
55010;BME280;40903;51.638;7.528;2024-03-02T09:56:44;99697.53;;;13.13;75.34
55010;BME280;40903;51.638;7.528;2024-03-02T09:59:09;99691.44;;;13.07;72.17
55010;BME280;40903;51.638;7.528;2024-03-02T10:01:35;99700.59;;;13.11;71.03
55010;BME280;40903;51.638;7.528;2024-03-02T10:04:00;99695.75;;;13.17;71.67
55010;BME280;40903;51.638;7.528;2024-03-02T10:06:28;99691.81;;;13.26;71.02
55010;BME280;40903;51.638;7.528;2024-03-02T10:08:55;99686.28;;;13.35;73.42
55010;BME280;40903;51.638;7.528;2024-03-02T10:11:31;99692.88;;;13.34;70.33
55010;BME280;40903;51.638;7.528;2024-03-02T10:14:10;99682.28;;;13.32;70.97
55010;BME280;40903;51.638;7.528;2024-03-02T10:16:37;99681.22;;;13.45;71.91
55010;BME280;40903;51.638;7.528;2024-03-02T10:19:18;99692.97;;;13.66;70.62
55010;BME280;40903;51.638;7.528;2024-03-02T10:21:48;99693.88;;;13.70;68.32
55010;BME280;40903;51.638;7.528;2024-03-02T10:24:15;99690.28;;;13.78;68.86
55010;BME280;40903;51.638;7.528;2024-03-02T10:26:41;99680.16;;;13.90;67.99
55010;BME280;40903;51.638;7.528;2024-03-02T10:29:10;99676.63;;;13.90;67.98
55010;BME280;40903;51.638;7.528;2024-03-02T10:31:44;99675.00;;;13.89;66.86
55010;BME280;40903;51.638;7.528;2024-03-02T10:34:11;99669.75;;;13.84;68.08
55010;BME280;40903;51.638;7.528;2024-03-02T10:36:41;99665.41;;;13.83;67.10
55010;BME280;40903;51.638;7.528;2024-03-02T10:39:08;99665.88;;;13.85;68.83
55010;BME280;40903;51.638;7.528;2024-03-02T10:41:35;99664.31;;;13.96;69.18
55010;BME280;40903;51.638;7.528;2024-03-02T10:44:06;99666.16;;;14.04;68.03
55010;BME280;40903;51.638;7.528;2024-03-02T10:46:33;99665.97;;;14.09;66.31
55010;BME280;40903;51.638;7.528;2024-03-02T10:49:00;99659.19;;;14.06;66.55
55010;BME280;40903;51.638;7.528;2024-03-02T10:51:27;99656.06;;;14.16;68.19
55010;BME280;40903;51.638;7.528;2024-03-02T10:53:54;99666.25;;;14.28;65.83
55010;BME280;40903;51.638;7.528;2024-03-02T10:56:31;99667.88;;;14.41;66.07
55010;BME280;40903;51.638;7.528;2024-03-02T10:59:28;99658.84;;;14.52;66.86
55010;BME280;40903;51.638;7.528;2024-03-02T11:01:57;99661.16;;;14.62;63.69
55010;BME280;40903;51.638;7.528;2024-03-02T11:04:24;99663.53;;;14.64;63.18
55010;BME280;40903;51.638;7.528;2024-03-02T11:06:51;99664.69;;;14.75;64.42
55010;BME280;40903;51.638;7.528;2024-03-02T11:09:22;99666.97;;;14.37;62.78
55010;BME280;40903;51.638;7.528;2024-03-02T11:12:12;99658.72;;;14.25;63.33
55010;BME280;40903;51.638;7.528;2024-03-02T11:14:41;99648.88;;;14.24;64.66
55010;BME280;40903;51.638;7.528;2024-03-02T11:17:14;99649.47;;;14.29;65.89
55010;BME280;40903;51.638;7.528;2024-03-02T11:19:44;99643.44;;;14.36;64.58
55010;BME280;40903;51.638;7.528;2024-03-02T11:22:11;99650.63;;;14.52;65.93
55010;BME280;40903;51.638;7.528;2024-03-02T11:24:37;99661.94;;;14.63;61.78
55010;BME280;40903;51.638;7.528;2024-03-02T11:27:06;99654.19;;;14.65;61.93
55010;BME280;40903;51.638;7.528;2024-03-02T11:32:05;99654.53;;;14.75;63.56
55010;BME280;40903;51.638;7.528;2024-03-02T11:34:33;99657.41;;;14.67;60.25
55010;BME280;40903;51.638;7.528;2024-03-02T11:37:01;99655.81;;;14.66;60.94
55010;BME280;40903;51.638;7.528;2024-03-02T11:39:28;99643.91;;;14.74;61.09
55010;BME280;40903;51.638;7.528;2024-03-02T11:41:55;99640.34;;;14.85;62.55
55010;BME280;40903;51.638;7.528;2024-03-02T11:44:21;99653.03;;;15.02;61.87
55010;BME280;40903;51.638;7.528;2024-03-02T11:47:01;99638.13;;;15.15;61.28
55010;BME280;40903;51.638;7.528;2024-03-02T11:49:50;99634.00;;;15.33;62.63
55010;BME280;40903;51.638;7.528;2024-03-02T11:52:17;99639.25;;;15.38;59.25
55010;BME280;40903;51.638;7.528;2024-03-02T11:54:47;99645.44;;;15.35;58.16
55010;BME280;40903;51.638;7.528;2024-03-02T11:57:15;99638.56;;;15.41;60.79
55010;BME280;40903;51.638;7.528;2024-03-02T11:59:41;99631.22;;;15.45;59.99
55010;BME280;40903;51.638;7.528;2024-03-02T12:02:06;99636.69;;;15.57;60.20
55010;BME280;40903;51.638;7.528;2024-03-02T12:04:38;99644.56;;;15.58;57.96
55010;BME280;40903;51.638;7.528;2024-03-02T12:07:03;99634.19;;;15.40;57.88
55010;BME280;40903;51.638;7.528;2024-03-02T12:09:29;99629.53;;;15.40;59.44
55010;BME280;40903;51.638;7.528;2024-03-02T12:12:10;99630.66;;;15.27;58.69
55010;BME280;40903;51.638;7.528;2024-03-02T12:14:37;99616.81;;;15.36;61.08
55010;BME280;40903;51.638;7.528;2024-03-02T12:17:04;99607.88;;;15.39;59.23
55010;BME280;40903;51.638;7.528;2024-03-02T12:19:32;99615.59;;;15.09;58.48
55010;BME280;40903;51.638;7.528;2024-03-02T12:21:59;99613.91;;;15.05;59.00
55010;BME280;40903;51.638;7.528;2024-03-02T12:24:28;99620.34;;;14.97;61.34
55010;BME280;40903;51.638;7.528;2024-03-02T12:26:54;99612.09;;;14.73;60.53
55010;BME280;40903;51.638;7.528;2024-03-02T12:29:21;99616.22;;;14.79;61.52
55010;BME280;40903;51.638;7.528;2024-03-02T12:31:50;99599.72;;;14.91;63.35
55010;BME280;40903;51.638;7.528;2024-03-02T12:34:18;99600.97;;;15.05;63.23
55010;BME280;40903;51.638;7.528;2024-03-02T12:36:45;99600.28;;;15.08;61.98
55010;BME280;40903;51.638;7.528;2024-03-02T12:39:13;99599.31;;;15.28;61.11
55010;BME280;40903;51.638;7.528;2024-03-02T12:41:39;99604.38;;;15.54;61.64
55010;BME280;40903;51.638;7.528;2024-03-02T12:44:05;99598.38;;;15.48;60.83
55010;BME280;40903;51.638;7.528;2024-03-02T12:46:34;99605.94;;;15.39;60.05
55010;BME280;40903;51.638;7.528;2024-03-02T12:49:09;99609.28;;;15.21;58.36
55010;BME280;40903;51.638;7.528;2024-03-02T12:51:39;99603.09;;;15.24;60.32
55010;BME280;40903;51.638;7.528;2024-03-02T12:54:10;99602.53;;;15.30;59.81
55010;BME280;40903;51.638;7.528;2024-03-02T12:56:36;99605.47;;;15.49;60.23
55010;BME280;40903;51.638;7.528;2024-03-02T12:59:03;99605.69;;;15.44;59.05
55010;BME280;40903;51.638;7.528;2024-03-02T13:01:28;99592.47;;;15.34;59.45
55010;BME280;40903;51.638;7.528;2024-03-02T13:03:54;99597.50;;;15.32;60.49
55010;BME280;40903;51.638;7.528;2024-03-02T13:06:21;99596.66;;;15.44;60.19
55010;BME280;40903;51.638;7.528;2024-03-02T13:08:47;99600.44;;;15.39;58.23